createdAt,value
2023-02-19T01:04:09.322Z,997.18
2023-02-19T01:09:09.149Z,996.98
2023-02-19T01:17:55.666Z,997.03
2023-02-19T01:22:55.546Z,996.97
2023-02-19T01:27:55.495Z,996.85
2023-02-19T01:32:55.223Z,996.67
2023-02-19T01:37:55.310Z,996.69
2023-02-19T01:42:55.087Z,996.56
2023-02-19T01:47:55.106Z,996.47
2023-02-19T01:52:54.946Z,996.35
2023-02-19T01:57:54.924Z,996.37
2023-02-19T02:02:54.792Z,996.30
2023-02-19T02:07:58.042Z,996.10
2023-02-19T02:12:54.859Z,996.03
2023-02-19T02:17:54.777Z,996.06
2023-02-19T02:22:54.567Z,996.05
2023-02-19T02:29:11.885Z,995.86
2023-02-19T02:34:11.471Z,995.89
2023-02-19T02:39:11.581Z,995.81
2023-02-19T02:44:11.401Z,995.62
2023-02-19T02:49:11.546Z,995.62
2023-02-19T02:54:11.435Z,995.58
2023-02-19T02:59:11.294Z,995.53
2023-02-19T03:04:11.093Z,995.44
2023-02-19T03:11:18.800Z,995.44
2023-02-19T03:21:29.134Z,995.43
2023-02-19T03:26:28.398Z,995.30
2023-02-19T03:31:28.441Z,995.29
2023-02-19T03:46:25.629Z,995.26
2023-02-19T03:51:25.526Z,995.29
2023-02-19T05:10:16.089Z,995.79
2023-02-19T05:15:23.370Z,995.81
2023-02-19T05:31:48.268Z,995.94
2023-02-19T05:40:09.675Z,996.25
2023-02-19T05:45:09.503Z,996.32
2023-02-19T05:50:09.755Z,996.49
2023-02-19T05:55:09.370Z,996.44
2023-02-19T06:00:09.496Z,996.59
2023-02-19T06:05:09.161Z,996.62
2023-02-19T06:10:09.113Z,996.60
2023-02-19T06:15:09.197Z,996.72
2023-02-19T06:24:19.584Z,996.70
2023-02-19T06:29:19.518Z,996.68
2023-02-19T06:48:15.154Z,997.00
2023-02-19T06:55:28.773Z,997.06
2023-02-19T07:07:42.654Z,997.26
2023-02-19T07:14:00.141Z,997.32
2023-02-19T07:19:07.587Z,997.35
2023-02-19T07:23:59.983Z,997.45
2023-02-19T07:29:00.447Z,997.47
2023-02-19T07:35:17.466Z,997.62
2023-02-19T07:40:17.181Z,997.69
2023-02-19T07:45:17.312Z,997.75
2023-02-19T07:50:17.155Z,997.76
2023-02-19T07:55:17.369Z,997.79
2023-02-19T08:00:52.932Z,997.81
2023-02-19T09:04:27.686Z,999.97
2023-02-19T09:09:21.760Z,999.89
2023-02-19T09:14:21.742Z,1000.15
2023-02-19T09:19:21.635Z,1000.48
2023-02-19T09:24:21.562Z,1000.60
2023-02-19T09:29:21.498Z,1000.51
2023-02-19T09:34:21.780Z,1000.65
2023-02-19T09:39:21.460Z,1000.73
2023-02-19T09:44:21.498Z,1000.80
2023-02-19T09:49:21.248Z,1000.92
2023-02-19T09:54:24.438Z,1001.05
2023-02-19T09:59:31.751Z,1001.10
2023-02-19T10:04:21.082Z,1001.16
2023-02-19T10:09:21.103Z,1001.19
2023-02-19T10:14:21.187Z,1001.24
2023-02-19T10:19:20.883Z,1001.34
2023-02-19T10:24:20.875Z,1001.52
2023-02-19T10:29:29.984Z,1001.67
2023-02-19T10:57:15.184Z,1002.42
2023-02-19T11:02:15.097Z,1002.45
2023-02-19T11:08:32.075Z,1002.54
2023-02-19T11:13:31.923Z,1002.60
2023-02-19T11:18:31.929Z,1002.71
2023-02-19T11:23:31.946Z,1002.80
2023-02-19T11:28:31.657Z,1002.96
2023-02-19T11:33:31.941Z,1002.89
2023-02-19T11:38:31.523Z,1002.85
2023-02-19T11:43:31.441Z,1002.95
2023-02-19T11:48:31.482Z,1002.91
2023-02-19T11:53:39.371Z,1002.80
2023-02-19T12:04:29.404Z,1002.83
2023-02-19T12:09:29.626Z,1002.83
2023-02-19T12:14:29.099Z,1002.85
2023-02-19T12:19:29.048Z,1003.06
2023-02-19T12:24:29.355Z,1003.15
2023-02-19T12:29:28.792Z,1003.14
2023-02-19T12:34:28.785Z,1003.15
2023-02-19T12:39:28.656Z,1003.12
2023-02-19T12:44:28.630Z,1003.11
2023-02-19T12:49:28.654Z,1003.15
2023-02-19T12:54:31.590Z,1003.19
2023-02-19T12:59:28.601Z,1003.28
2023-02-19T13:04:28.495Z,1003.36
2023-02-19T13:09:36.541Z,1003.40
2023-02-19T13:19:20.792Z,1003.38
2023-02-19T13:26:22.874Z,1003.40
2023-02-19T13:38:30.009Z,1003.58
2023-02-19T13:45:42.506Z,1003.61
2023-02-19T13:50:48.643Z,1003.54
2023-02-19T13:55:39.641Z,1003.61
2023-02-19T14:21:49.851Z,1004.18
2023-02-19T16:33:17.478Z,1004.63
2023-02-19T16:40:55.892Z,1004.71
2023-02-19T16:49:48.954Z,1004.96
2023-02-19T17:10:29.855Z,1005.19
2023-02-19T17:15:28.800Z,1005.26
2023-02-19T17:50:35.984Z,1005.80
2023-02-19T17:55:41.011Z,1005.79
2023-02-19T18:02:20.153Z,1005.75
2023-02-19T23:41:22.408Z,1005.94
2023-02-19T23:50:01.482Z,1005.83
2023-02-19T23:55:01.295Z,1005.74
